createdAt,value
2022-11-28T00:01:36.742Z,20.23
2022-11-28T00:04:05.093Z,24.42
2022-11-28T00:06:33.462Z,17.55
2022-11-28T00:09:01.963Z,17.58
2022-11-28T00:11:31.572Z,18.73
2022-11-28T00:13:59.792Z,19.02
2022-11-28T00:16:27.889Z,17.30
2022-11-28T00:18:56.052Z,17.83
2022-11-28T00:21:25.485Z,17.55
2022-11-28T00:23:54.597Z,20.63
2022-11-28T00:26:25.643Z,19.25
2022-11-28T00:28:56.238Z,17.63
2022-11-28T00:31:25.531Z,19.50
2022-11-28T00:33:53.790Z,19.13
2022-11-28T00:36:22.111Z,18.85
2022-11-28T00:38:50.506Z,17.88
2022-11-28T00:41:19.505Z,17.65
2022-11-28T00:43:48.195Z,16.38
2022-11-28T00:46:18.177Z,17.15
2022-11-28T00:48:46.589Z,16.92
2022-11-28T00:51:15.864Z,17.27
2022-11-28T00:53:44.703Z,16.50
2022-11-28T00:56:13.979Z,18.65
2022-11-28T00:58:42.754Z,18.17
2022-11-28T01:01:12.016Z,14.85
2022-11-28T01:03:42.682Z,12.95
2022-11-28T01:06:12.110Z,11.63
2022-11-28T01:08:40.342Z,14.00
2022-11-28T01:11:12.197Z,16.67
2022-11-28T01:13:40.555Z,15.82
2022-11-28T01:16:08.694Z,16.80
2022-11-28T01:18:37.299Z,18.30
2022-11-28T01:21:07.220Z,14.25
2022-11-28T01:23:36.042Z,16.33
2022-11-28T01:26:04.514Z,14.88
2022-11-28T01:28:32.910Z,15.05
2022-11-28T01:31:04.166Z,14.68
2022-11-28T01:33:32.445Z,16.02
2022-11-28T01:36:00.673Z,14.25
2022-11-28T01:38:30.254Z,15.82
2022-11-28T01:40:59.414Z,15.85
2022-11-28T01:43:27.767Z,14.60
2022-11-28T01:45:55.829Z,19.92
2022-11-28T01:48:26.446Z,22.42
2022-11-28T01:50:56.839Z,16.40
2022-11-28T01:53:26.671Z,18.98
2022-11-28T01:55:58.995Z,25.10
2022-11-28T01:58:27.248Z,19.63
2022-11-28T02:00:55.510Z,19.55
2022-11-28T02:03:26.182Z,16.48
2022-11-28T02:05:54.398Z,18.88
2022-11-28T02:08:22.646Z,20.27
2022-11-28T02:10:56.496Z,19.75
2022-11-28T02:13:31.658Z,23.20
2022-11-28T02:16:11.380Z,18.83
2022-11-28T02:18:56.276Z,18.67
2022-11-28T02:21:30.168Z,17.77
2022-11-28T02:24:13.221Z,20.08
2022-11-28T02:27:05.273Z,22.95
2022-11-28T02:29:50.365Z,20.67
2022-11-28T02:35:25.772Z,25.08
2022-11-28T02:38:00.856Z,23.67
2022-11-28T02:40:30.403Z,24.88
2022-11-28T02:43:04.197Z,24.58
2022-11-28T02:45:36.704Z,25.42
2022-11-28T02:48:13.124Z,28.90
2022-11-28T02:50:46.475Z,28.58
2022-11-28T02:53:16.767Z,26.45
2022-11-28T02:55:45.582Z,24.77
2022-11-28T02:58:13.977Z,20.70
2022-11-28T03:00:44.905Z,23.80
2022-11-28T03:03:31.093Z,21.23
2022-11-28T03:06:03.321Z,25.92
2022-11-28T03:08:37.084Z,22.52
2022-11-28T03:11:08.105Z,21.15
2022-11-28T03:13:39.996Z,24.35
2022-11-28T03:16:14.167Z,19.88
2022-11-28T03:18:46.968Z,20.92
2022-11-28T03:21:19.316Z,24.48
2022-11-28T03:23:49.170Z,24.00
2022-11-28T03:26:19.720Z,22.52
2022-11-28T03:28:50.842Z,19.65
2022-11-28T03:31:21.076Z,22.15
2022-11-28T03:33:51.461Z,22.05
2022-11-28T03:36:22.782Z,22.33
2022-11-28T03:38:54.060Z,22.13
2022-11-28T03:41:24.729Z,22.92
2022-11-28T03:43:54.547Z,19.48
2022-11-28T03:46:24.356Z,21.02
2022-11-28T03:48:53.765Z,20.65
2022-11-28T03:51:25.762Z,21.48
2022-11-28T03:53:57.060Z,26.42
2022-11-28T03:56:30.283Z,24.35
2022-11-28T03:59:01.134Z,24.50
2022-11-28T04:01:35.409Z,22.55
2022-11-28T04:04:13.344Z,21.00
2022-11-28T04:06:51.176Z,23.58
2022-11-28T04:09:20.274Z,23.70
2022-11-28T04:11:50.924Z,21.95
2022-11-28T04:14:21.745Z,21.55
2022-11-28T04:16:54.051Z,23.58
2022-11-28T04:19:26.791Z,25.67
2022-11-28T04:21:58.376Z,23.35
2022-11-28T04:24:29.369Z,20.55
2022-11-28T04:27:00.570Z,21.55
2022-11-28T04:29:30.323Z,21.08
2022-11-28T04:31:59.509Z,21.45
2022-11-28T04:34:28.886Z,20.40
2022-11-28T04:36:58.922Z,23.35
2022-11-28T04:39:27.334Z,18.15
2022-11-28T04:41:56.813Z,23.20
2022-11-28T04:44:29.167Z,20.92
2022-11-28T04:46:57.918Z,21.65
2022-11-28T04:49:27.269Z,20.10
2022-11-28T04:52:00.384Z,18.00
2022-11-28T04:54:32.713Z,21.67
2022-11-28T04:57:02.080Z,17.50
2022-11-28T04:59:31.961Z,19.67
2022-11-28T05:02:03.802Z,18.20
2022-11-28T05:04:31.912Z,21.05
2022-11-28T05:07:03.548Z,17.20
2022-11-28T05:09:33.403Z,20.13
2022-11-28T05:12:01.944Z,17.58
2022-11-28T05:14:29.992Z,21.58
2022-11-28T05:16:58.320Z,19.20
2022-11-28T05:19:26.509Z,19.63
2022-11-28T05:21:54.821Z,20.42
2022-11-28T05:24:24.886Z,20.90
2022-11-28T05:26:57.641Z,22.67
2022-11-28T05:29:26.427Z,18.02
2022-11-28T05:31:54.447Z,19.80
2022-11-28T05:34:22.959Z,19.35
2022-11-28T05:36:51.102Z,19.60
2022-11-28T05:39:19.229Z,20.20
2022-11-28T05:41:47.404Z,21.48
2022-11-28T05:44:16.973Z,25.65
2022-11-28T05:46:45.127Z,21.25
2022-11-28T05:49:13.766Z,26.05
2022-11-28T05:51:45.433Z,22.65
2022-11-28T05:54:13.625Z,25.58
2022-11-28T05:56:42.627Z,23.52
2022-11-28T05:59:11.870Z,27.38
2022-11-28T06:01:42.117Z,28.08
2022-11-28T06:04:10.492Z,30.90
2022-11-28T06:06:38.981Z,36.03
2022-11-28T06:09:08.071Z,34.97
2022-11-28T06:11:36.350Z,42.85
2022-11-28T06:14:04.673Z,38.42
2022-11-28T06:16:33.086Z,44.03
2022-11-28T06:19:05.206Z,42.58
2022-11-28T06:21:33.635Z,31.70
2022-11-28T06:24:01.717Z,37.53
2022-11-28T06:26:29.905Z,37.25
2022-11-28T06:28:58.797Z,33.67
2022-11-28T06:31:28.736Z,27.38
2022-11-28T06:33:57.133Z,29.35
2022-11-28T06:36:27.167Z,27.98
2022-11-28T06:38:55.964Z,36.35
2022-11-28T06:41:24.134Z,31.02
2022-11-28T06:43:52.427Z,29.45
2022-11-28T06:46:21.673Z,31.75
2022-11-28T06:48:50.726Z,32.67
2022-11-28T06:51:19.212Z,39.47
2022-11-28T06:53:49.881Z,34.88
2022-11-28T06:56:18.936Z,43.40
2022-11-28T06:58:47.536Z,51.33
2022-11-28T07:01:17.860Z,47.65
2022-11-28T07:03:46.426Z,45.83
2022-11-28T07:06:14.961Z,43.20
2022-11-28T07:08:49.743Z,47.85
2022-11-28T07:11:20.489Z,45.50
2022-11-28T07:13:49.119Z,44.10
2022-11-28T07:16:35.217Z,39.90
2022-11-28T07:31:17.042Z,36.80
2022-11-28T07:34:17.880Z,36.80
2022-11-28T07:36:47.890Z,34.30
2022-11-28T07:44:19.589Z,36.28
2022-11-28T07:47:48.717Z,35.75
2022-11-28T07:50:54.184Z,39.05
2022-11-28T07:53:24.245Z,40.33
2022-11-28T07:55:52.421Z,39.40
2022-11-28T07:58:22.430Z,39.08
2022-11-28T08:00:50.658Z,59.80
2022-11-28T08:03:24.607Z,62.42
2022-11-28T08:05:52.749Z,46.40
2022-11-28T08:08:22.222Z,52.22
2022-11-28T08:10:52.585Z,56.97
2022-11-28T08:13:20.846Z,46.58
2022-11-28T08:15:49.005Z,34.78
2022-11-28T08:18:17.617Z,40.13
2022-11-28T08:20:45.755Z,40.67
2022-11-28T08:23:14.189Z,34.72
2022-11-28T08:25:42.320Z,31.15
2022-11-28T08:28:11.749Z,31.85
2022-11-28T08:30:40.163Z,31.20
2022-11-28T08:33:10.050Z,27.38
2022-11-28T08:35:41.096Z,30.42
2022-11-28T08:38:09.874Z,28.20
2022-11-28T08:40:38.313Z,33.67
2022-11-28T08:43:07.591Z,29.65
2022-11-28T08:45:38.139Z,29.00
2022-11-28T08:48:07.176Z,30.92
2022-11-28T08:50:35.105Z,27.45
2022-11-28T08:53:08.099Z,31.92
2022-11-28T08:55:40.481Z,33.28
2022-11-28T08:58:10.106Z,34.47
2022-11-28T09:00:40.437Z,30.55
2022-11-28T09:03:13.049Z,31.77
2022-11-28T09:05:41.508Z,28.33
2022-11-28T09:08:11.809Z,30.20
2022-11-28T09:10:40.652Z,26.35
2022-11-28T09:13:09.784Z,26.08
2022-11-28T09:15:42.153Z,31.58
2022-11-28T09:18:10.955Z,26.77
2022-11-28T09:20:39.634Z,28.35
2022-11-28T09:23:07.838Z,27.67
2022-11-28T09:25:36.256Z,30.55
2022-11-28T09:28:04.872Z,29.95
2022-11-28T09:30:33.282Z,29.30
2022-11-28T09:33:04.935Z,27.52
2022-11-28T09:35:33.879Z,29.90
2022-11-28T09:38:02.009Z,31.35
2022-11-28T09:40:32.691Z,26.65
2022-11-28T09:43:02.401Z,27.45
2022-11-28T09:45:31.719Z,28.58
2022-11-28T09:48:04.661Z,29.80
2022-11-28T09:50:34.116Z,27.10
2022-11-28T09:53:31.961Z,29.85
2022-11-28T09:56:01.377Z,24.40
2022-11-28T09:58:32.214Z,29.27
2022-11-28T10:01:07.298Z,30.33
2022-11-28T10:03:42.114Z,24.27
2022-11-28T10:06:19.574Z,27.20
2022-11-28T10:09:01.176Z,29.42
2022-11-28T10:11:35.330Z,27.17
2022-11-28T10:14:08.485Z,26.30
2022-11-28T10:16:43.212Z,19.80
2022-11-28T10:19:31.651Z,21.15
2022-11-28T10:22:04.525Z,16.88
2022-11-28T10:24:40.583Z,20.30
2022-11-28T10:27:12.337Z,17.10
2022-11-28T10:29:45.521Z,19.08
2022-11-28T10:32:16.186Z,20.92
2022-11-28T10:34:47.810Z,17.35
2022-11-28T10:37:20.906Z,18.17
2022-11-28T10:39:50.139Z,19.13
2022-11-28T10:42:22.377Z,17.02
2022-11-28T10:45:15.560Z,17.75
2022-11-28T10:47:53.294Z,19.25
2022-11-28T10:50:32.059Z,20.70
2022-11-28T10:53:02.053Z,17.92
2022-11-28T10:55:35.749Z,19.88
2022-11-28T10:58:11.018Z,19.38
2022-11-28T11:00:39.772Z,16.33
2022-11-28T11:03:13.345Z,27.90
2022-11-28T11:05:43.621Z,23.48
2022-11-28T11:08:15.988Z,19.55
2022-11-28T11:10:46.227Z,29.05
2022-11-28T11:13:15.837Z,23.67
2022-11-28T11:15:46.082Z,18.08
2022-11-28T11:18:24.014Z,21.50
2022-11-28T11:20:54.726Z,16.92
2022-11-28T11:23:26.022Z,20.98
2022-11-28T11:25:56.303Z,23.27
2022-11-28T11:28:30.121Z,20.38
2022-11-28T11:31:01.618Z,21.55
2022-11-28T11:33:33.878Z,20.10
2022-11-28T11:36:03.849Z,22.38
2022-11-28T11:38:37.837Z,20.77
2022-11-28T11:41:29.498Z,20.85
2022-11-28T11:43:57.845Z,20.35
2022-11-28T11:46:26.128Z,17.67
2022-11-28T11:48:54.523Z,20.25
2022-11-28T11:51:26.131Z,21.60
2022-11-28T11:54:01.774Z,19.05
2022-11-28T11:56:31.518Z,23.95
2022-11-28T11:59:00.706Z,25.50
2022-11-28T12:01:29.644Z,25.35
2022-11-28T12:04:08.378Z,22.35
2022-11-28T12:06:45.175Z,24.17
2022-11-28T12:09:18.692Z,24.67
2022-11-28T12:11:50.919Z,24.05
2022-11-28T12:14:28.609Z,25.75
2022-11-28T12:17:25.616Z,25.88
2022-11-28T12:20:01.087Z,26.38
2022-11-28T12:22:34.514Z,22.92
2022-11-28T12:25:05.197Z,26.52
2022-11-28T12:27:41.400Z,26.20
2022-11-28T12:30:17.381Z,21.42
2022-11-28T12:32:50.621Z,21.97
2022-11-28T12:35:25.290Z,26.10
2022-11-28T12:38:10.817Z,21.48
2022-11-28T12:40:42.743Z,20.98
2022-11-28T12:43:18.268Z,21.77
2022-11-28T12:45:50.693Z,22.45
2022-11-28T12:48:26.164Z,22.95
2022-11-28T12:51:00.053Z,22.52
2022-11-28T12:53:35.036Z,20.85
2022-11-28T12:56:07.697Z,22.00
2022-11-28T12:58:38.303Z,19.48
2022-11-28T13:01:15.885Z,21.95
2022-11-28T13:03:52.258Z,18.17
2022-11-28T13:06:25.167Z,21.33
2022-11-28T13:08:59.610Z,19.60
2022-11-28T13:11:36.274Z,19.15
2022-11-28T13:14:07.489Z,20.45
2022-11-28T13:16:41.783Z,18.33
2022-11-28T13:19:13.407Z,20.55
2022-11-28T13:21:45.301Z,21.58
2022-11-28T13:24:20.181Z,24.10
2022-11-28T13:26:58.777Z,21.13
2022-11-28T13:29:31.337Z,22.38
2022-11-28T13:32:02.782Z,22.45
2022-11-28T13:34:31.317Z,24.40
2022-11-28T13:39:55.197Z,28.30
2022-11-28T13:45:30.097Z,26.37
2022-11-28T13:48:01.014Z,27.75
2022-11-28T13:50:39.595Z,31.48
2022-11-28T13:53:22.354Z,29.55
2022-11-28T13:55:53.441Z,30.38
2022-11-28T13:58:23.635Z,33.00
2022-11-28T14:01:06.546Z,32.42
2022-11-28T14:03:36.623Z,33.65
2022-11-28T14:06:06.977Z,33.88
2022-11-28T14:08:36.951Z,35.47
2022-11-28T14:11:12.476Z,33.47
2022-11-28T14:13:58.119Z,35.30
2022-11-28T14:16:32.322Z,40.05
2022-11-28T14:19:05.327Z,35.90
2022-11-28T14:21:39.980Z,39.97
2022-11-28T14:24:12.914Z,41.15
2022-11-28T14:26:43.230Z,46.83
2022-11-28T14:29:20.667Z,43.70
2022-11-28T14:32:13.726Z,51.70
2022-11-28T14:34:38.380Z,47.45
2022-11-28T14:37:27.487Z,53.33
2022-11-28T14:39:56.410Z,54.30
2022-11-28T14:43:00.183Z,55.85
2022-11-28T14:45:44.741Z,56.75
2022-11-28T14:48:18.714Z,51.88
2022-11-28T14:50:48.736Z,52.58
2022-11-28T14:53:35.430Z,55.65
2022-11-28T14:58:35.409Z,50.60
2022-11-28T15:01:07.040Z,52.10
2022-11-28T15:03:40.051Z,51.15
2022-11-28T15:06:12.467Z,61.70
2022-11-28T15:08:52.817Z,57.28
2022-11-28T15:11:32.317Z,58.90
2022-11-28T15:14:09.978Z,62.03
2022-11-28T15:16:48.224Z,56.08
2022-11-28T15:19:22.323Z,60.95
2022-11-28T15:21:51.538Z,66.32
2022-11-28T15:24:28.687Z,68.50
2022-11-28T15:26:58.136Z,63.13
2022-11-28T15:29:27.608Z,64.80
2022-11-28T15:31:59.320Z,58.20
2022-11-28T15:34:28.739Z,74.18
2022-11-28T15:36:58.210Z,65.40
2022-11-28T15:39:28.149Z,65.70
2022-11-28T15:41:57.040Z,66.35
2022-11-28T15:44:25.796Z,62.20
2022-11-28T15:46:54.390Z,65.35
2022-11-28T15:49:25.683Z,61.65
2022-11-28T15:51:54.929Z,63.53
2022-11-28T15:54:28.711Z,72.13
2022-11-28T15:57:00.626Z,61.97
2022-11-28T15:59:29.373Z,68.35
2022-11-28T16:02:00.259Z,65.18
2022-11-28T16:04:32.154Z,65.40
2022-11-28T16:07:01.179Z,69.72
2022-11-28T16:09:31.585Z,64.32
2022-11-28T16:12:00.117Z,80.35
2022-11-28T16:14:29.623Z,61.13
2022-11-28T16:16:58.253Z,63.03
2022-11-28T16:20:00.794Z,70.60
2022-11-28T16:22:49.750Z,69.85
2022-11-28T16:25:33.134Z,72.15
2022-11-28T16:28:02.992Z,60.58
2022-11-28T16:30:37.079Z,94.28
2022-11-28T16:33:25.409Z,84.22
2022-11-28T16:35:53.636Z,80.20
2022-11-28T16:38:23.739Z,85.35
2022-11-28T16:40:52.195Z,76.45
2022-11-28T16:43:25.280Z,82.13
2022-11-28T16:46:00.579Z,100.57
2022-11-28T16:48:30.334Z,99.35
2022-11-28T16:51:29.834Z,60.38
2022-11-28T16:53:59.582Z,83.63
2022-11-28T16:56:28.986Z,124.95
2022-11-28T16:59:00.489Z,90.75
2022-11-28T17:17:11.891Z,68.97
2022-11-28T17:19:40.847Z,72.93
2022-11-28T17:22:10.838Z,54.05
2022-11-28T17:24:39.191Z,75.78
2022-11-28T17:27:09.465Z,78.20
2022-11-28T17:29:38.088Z,75.78
2022-11-28T17:32:06.832Z,77.85
2022-11-28T17:34:37.143Z,59.65
2022-11-28T17:37:06.012Z,76.95
2022-11-28T17:39:34.534Z,86.38
2022-11-28T17:42:02.912Z,87.15
2022-11-28T17:44:32.108Z,74.25
2022-11-28T17:47:00.736Z,75.10
2022-11-28T17:49:29.039Z,97.82
2022-11-28T17:51:59.260Z,88.22
2022-11-28T17:54:27.921Z,86.30
2022-11-28T17:56:56.316Z,116.40
2022-11-28T17:59:25.054Z,88.03
2022-11-28T18:01:53.530Z,110.05
2022-11-28T18:04:21.912Z,114.05
2022-11-28T18:06:50.451Z,110.63
2022-11-28T18:09:20.153Z,112.70
2022-11-28T18:11:48.266Z,126.90
2022-11-28T18:14:19.697Z,87.47
2022-11-28T18:16:48.094Z,120.68
2022-11-28T18:19:16.645Z,117.03
2022-11-28T18:21:45.237Z,90.75
2022-11-28T18:24:13.715Z,115.07
2022-11-28T18:26:43.851Z,133.02
2022-11-28T18:29:12.027Z,82.80
2022-11-28T18:31:40.564Z,116.07
2022-11-28T18:34:09.637Z,81.95
2022-11-28T18:36:39.110Z,163.57
2022-11-28T18:39:09.046Z,172.38
2022-11-28T18:41:37.551Z,163.73
2022-11-28T18:44:08.067Z,109.97
2022-11-28T18:46:36.428Z,131.60
2022-11-28T18:49:05.445Z,63.15
2022-11-28T18:51:35.142Z,67.95
2022-11-28T18:54:04.031Z,60.70
2022-11-28T18:56:32.365Z,117.35
2022-11-28T18:59:00.693Z,78.43
2022-11-28T19:01:31.890Z,64.18
2022-11-28T19:04:01.556Z,64.43
2022-11-28T19:06:30.208Z,65.40
2022-11-28T19:08:59.052Z,61.03
2022-11-28T19:11:28.771Z,57.55
2022-11-28T19:13:57.765Z,59.22
2022-11-28T19:16:27.046Z,53.10
2022-11-28T19:18:57.138Z,44.88
2022-11-28T19:21:26.390Z,53.38
2022-11-28T19:23:55.491Z,50.67
2022-11-28T19:26:24.513Z,47.88
2022-11-28T19:28:53.179Z,58.17
2022-11-28T19:31:22.571Z,59.58
2022-11-28T19:34:00.796Z,52.00
2022-11-28T19:36:30.162Z,51.70
2022-11-28T19:38:59.031Z,43.85
2022-11-28T19:41:27.348Z,52.35
2022-11-28T19:43:56.064Z,53.92
2022-11-28T19:46:24.722Z,50.75
2022-11-28T20:07:47.825Z,68.78
2022-11-28T20:10:27.444Z,158.38
2022-11-28T20:12:56.313Z,152.48
2022-11-28T20:15:24.738Z,129.75
2022-11-28T20:17:53.976Z,122.85
2022-11-28T20:20:21.953Z,116.65
2022-11-28T20:22:50.260Z,84.78
2022-11-28T20:25:21.139Z,86.90
2022-11-28T20:27:49.271Z,93.70
2022-11-28T20:30:17.847Z,119.18
2022-11-28T20:32:46.469Z,68.13
2022-11-28T20:35:14.537Z,155.52
2022-11-28T20:37:43.255Z,88.75
2022-11-28T20:40:12.086Z,129.40
2022-11-28T20:42:41.979Z,80.20
2022-11-28T20:45:10.779Z,94.00
2022-11-28T20:47:39.073Z,79.82
2022-11-28T20:50:08.728Z,101.50
2022-11-28T20:52:37.104Z,71.38
2022-11-28T20:55:05.795Z,127.07
2022-11-28T20:57:34.105Z,106.10
2022-11-28T21:00:03.866Z,87.28
2022-11-28T21:02:32.166Z,85.03
2022-11-28T21:05:00.712Z,126.03
2022-11-28T21:07:31.070Z,86.80
2022-11-28T21:10:00.076Z,79.43
2022-11-28T21:12:28.495Z,128.98
2022-11-28T21:14:57.112Z,94.05
2022-11-28T21:17:26.889Z,70.75
2022-11-28T21:19:55.462Z,72.47
2022-11-28T21:22:26.311Z,102.60
2022-11-28T21:24:54.750Z,92.75
2022-11-28T21:27:23.064Z,81.57
2022-11-28T21:29:52.169Z,114.03
2022-11-28T21:32:20.763Z,84.05
2022-11-28T21:34:50.670Z,88.72
2022-11-28T21:37:19.057Z,68.75
2022-11-28T21:39:47.390Z,89.35
2022-11-28T21:42:20.461Z,74.00
2022-11-28T21:44:49.308Z,59.83
2022-11-28T21:47:17.866Z,54.38
2022-11-28T21:49:46.490Z,57.03
2022-11-28T21:52:16.842Z,65.20
2022-11-28T21:54:44.737Z,57.10
2022-11-28T21:57:13.162Z,58.95
2022-11-28T21:59:41.142Z,53.97
2022-11-28T22:02:17.677Z,54.90
2022-11-28T22:04:49.035Z,57.35
2022-11-28T22:07:19.320Z,54.33
2022-11-28T22:09:48.090Z,59.58
2022-11-28T22:12:16.533Z,48.47
2022-11-28T22:14:45.232Z,59.83
2022-11-28T22:17:13.926Z,47.08
2022-11-28T22:19:42.864Z,49.35
2022-11-28T22:22:11.896Z,46.83
2022-11-28T22:24:41.683Z,40.85
2022-11-28T22:27:10.114Z,45.47
2022-11-28T22:29:38.622Z,40.25
2022-11-28T22:32:07.186Z,41.53
2022-11-28T22:34:40.464Z,39.85
2022-11-28T22:37:08.835Z,45.25
2022-11-28T22:39:39.006Z,44.78
2022-11-28T22:42:08.851Z,41.05
2022-11-28T22:44:36.809Z,44.55
2022-11-28T22:47:05.192Z,39.50
2022-11-28T22:49:33.575Z,32.80
2022-11-28T22:52:01.871Z,41.13
2022-11-28T22:54:30.104Z,41.38
2022-11-28T22:56:58.313Z,33.78
2022-11-28T22:59:28.259Z,38.58
2022-11-28T23:01:56.894Z,33.72
2022-11-28T23:04:25.401Z,33.78
2022-11-28T23:06:53.752Z,32.15
2022-11-28T23:09:22.494Z,28.20
2022-11-28T23:11:50.579Z,29.23
2022-11-28T23:14:18.934Z,38.08
2022-11-28T23:16:49.103Z,55.92
2022-11-28T23:19:18.296Z,37.25
2022-11-28T23:21:47.190Z,48.38
2022-11-28T23:24:16.262Z,48.15
2022-11-28T23:26:44.856Z,41.83
2022-11-28T23:29:13.152Z,36.17
2022-11-28T23:31:41.973Z,28.75
2022-11-28T23:34:12.508Z,32.88
2022-11-28T23:36:42.718Z,37.63
2022-11-28T23:39:12.243Z,37.28
2022-11-28T23:41:40.391Z,34.15
2022-11-28T23:44:08.575Z,35.17
2022-11-28T23:46:37.109Z,33.25
2022-11-28T23:49:05.780Z,34.03
2022-11-28T23:51:35.869Z,34.72
2022-11-28T23:54:04.294Z,44.08
2022-11-28T23:56:34.794Z,46.03
2022-11-28T23:59:04.703Z,46.55
